sensor_id;sensor_type;location;lat;lon;timestamp;temperature;humidity
74877;HTU21D;63425;44.786;37.682;2022-10-16T00:02:25;10.48;68.10
74877;HTU21D;63425;44.786;37.682;2022-10-16T00:04:55;10.42;68.45
74877;HTU21D;63425;44.786;37.682;2022-10-16T00:07:22;10.54;68.25
74877;HTU21D;63425;44.786;37.682;2022-10-16T00:09:54;10.58;68.15
74877;HTU21D;63425;44.786;37.682;2022-10-16T00:12:21;10.60;68.10
74877;HTU21D;63425;44.786;37.682;2022-10-16T00:14:48;10.59;68.21
74877;HTU21D;63425;44.786;37.682;2022-10-16T00:17:16;10.59;68.16
74877;HTU21D;63425;44.786;37.682;2022-10-16T00:19:44;10.52;68.41
74877;HTU21D;63425;44.786;37.682;2022-10-16T00:22:30;10.49;68.42
74877;HTU21D;63425;44.786;37.682;2022-10-16T00:25:02;10.49;68.46
74877;HTU21D;63425;44.786;37.682;2022-10-16T00:27:34;10.43;68.54
74877;HTU21D;63425;44.786;37.682;2022-10-16T00:30:11;10.40;68.69
74877;HTU21D;63425;44.786;37.682;2022-10-16T00:32:40;10.43;68.55
74877;HTU21D;63425;44.786;37.682;2022-10-16T00:35:18;10.39;68.57
74877;HTU21D;63425;44.786;37.682;2022-10-16T00:38:04;10.28;68.94
74877;HTU21D;63425;44.786;37.682;2022-10-16T00:40:35;10.21;69.34
74877;HTU21D;63425;44.786;37.682;2022-10-16T00:43:14;10.10;69.58
74877;HTU21D;63425;44.786;37.682;2022-10-16T00:46:02;10.13;69.55
74877;HTU21D;63425;44.786;37.682;2022-10-16T00:48:31;10.16;69.63
74877;HTU21D;63425;44.786;37.682;2022-10-16T00:51:00;10.22;69.69
74877;HTU21D;63425;44.786;37.682;2022-10-16T00:53:28;10.22;69.72
74877;HTU21D;63425;44.786;37.682;2022-10-16T00:55:55;10.24;69.71
74877;HTU21D;63425;44.786;37.682;2022-10-16T00:58:24;10.21;70.03
74877;HTU21D;63425;44.786;37.682;2022-10-16T01:00:52;10.26;69.94
74877;HTU21D;63425;44.786;37.682;2022-10-16T01:03:30;10.37;69.87
74877;HTU21D;63425;44.786;37.682;2022-10-16T01:06:19;10.27;70.08
74877;HTU21D;63425;44.786;37.682;2022-10-16T01:09:14;10.26;70.49
74877;HTU21D;63425;44.786;37.682;2022-10-16T01:12:23;10.34;70.68
74877;HTU21D;63425;44.786;37.682;2022-10-16T01:15:27;10.42;70.26
74877;HTU21D;63425;44.786;37.682;2022-10-16T01:18:08;10.48;70.21
74877;HTU21D;63425;44.786;37.682;2022-10-16T01:21:03;10.42;70.22
74877;HTU21D;63425;44.786;37.682;2022-10-16T01:27:12;10.31;70.39
74877;HTU21D;63425;44.786;37.682;2022-10-16T01:29:52;10.28;70.39
74877;HTU21D;63425;44.786;37.682;2022-10-16T01:35:12;10.45;70.00
74877;HTU21D;63425;44.786;37.682;2022-10-16T01:40:39;10.45;70.04
74877;HTU21D;63425;44.786;37.682;2022-10-16T01:43:45;10.43;70.69
74877;HTU21D;63425;44.786;37.682;2022-10-16T01:46:15;10.49;70.31
74877;HTU21D;63425;44.786;37.682;2022-10-16T01:49:03;10.58;70.38
74877;HTU21D;63425;44.786;37.682;2022-10-16T01:51:32;10.55;70.32
74877;HTU21D;63425;44.786;37.682;2022-10-16T01:54:01;10.56;70.37
74877;HTU21D;63425;44.786;37.682;2022-10-16T01:56:34;10.55;70.45
74877;HTU21D;63425;44.786;37.682;2022-10-16T01:59:16;10.64;70.26
74877;HTU21D;63425;44.786;37.682;2022-10-16T02:01:58;10.63;70.10
74877;HTU21D;63425;44.786;37.682;2022-10-16T02:04:33;10.59;70.03
74877;HTU21D;63425;44.786;37.682;2022-10-16T02:07:12;10.59;70.07
74877;HTU21D;63425;44.786;37.682;2022-10-16T02:09:55;10.54;70.22
74877;HTU21D;63425;44.786;37.682;2022-10-16T02:12:27;10.52;70.19
74877;HTU21D;63425;44.786;37.682;2022-10-16T02:15:03;10.55;70.15
74877;HTU21D;63425;44.786;37.682;2022-10-16T02:17:41;10.54;70.26
74877;HTU21D;63425;44.786;37.682;2022-10-16T02:20:08;10.53;70.44
74877;HTU21D;63425;44.786;37.682;2022-10-16T02:22:47;10.52;70.76
74877;HTU21D;63425;44.786;37.682;2022-10-16T02:25:36;10.45;71.00
74877;HTU21D;63425;44.786;37.682;2022-10-16T02:28:16;10.56;71.13
74877;HTU21D;63425;44.786;37.682;2022-10-16T02:31:01;10.54;71.29
74877;HTU21D;63425;44.786;37.682;2022-10-16T02:33:57;10.49;71.40
74877;HTU21D;63425;44.786;37.682;2022-10-16T02:36:26;10.44;71.55
74877;HTU21D;63425;44.786;37.682;2022-10-16T02:38:55;10.39;71.53
74877;HTU21D;63425;44.786;37.682;2022-10-16T02:41:25;10.41;71.71
74877;HTU21D;63425;44.786;37.682;2022-10-16T02:43:53;10.50;71.99
74877;HTU21D;63425;44.786;37.682;2022-10-16T02:46:23;10.51;71.79
74877;HTU21D;63425;44.786;37.682;2022-10-16T02:48:51;10.57;71.83
74877;HTU21D;63425;44.786;37.682;2022-10-16T02:51:32;10.58;71.68
74877;HTU21D;63425;44.786;37.682;2022-10-16T02:54:02;10.52;71.71
74877;HTU21D;63425;44.786;37.682;2022-10-16T02:56:40;10.51;71.93
74877;HTU21D;63425;44.786;37.682;2022-10-16T02:59:06;10.54;72.08
74877;HTU21D;63425;44.786;37.682;2022-10-16T03:01:35;10.53;72.19
74877;HTU21D;63425;44.786;37.682;2022-10-16T03:04:03;10.57;72.08
74877;HTU21D;63425;44.786;37.682;2022-10-16T03:06:32;10.56;71.93
74877;HTU21D;63425;44.786;37.682;2022-10-16T03:09:01;10.54;72.03
74877;HTU21D;63425;44.786;37.682;2022-10-16T03:11:27;10.59;71.84
74877;HTU21D;63425;44.786;37.682;2022-10-16T03:13:54;10.62;72.00
74877;HTU21D;63425;44.786;37.682;2022-10-16T03:16:23;10.71;72.03
74877;HTU21D;63425;44.786;37.682;2022-10-16T03:18:52;10.69;72.02
74877;HTU21D;63425;44.786;37.682;2022-10-16T03:21:22;10.67;72.06
74877;HTU21D;63425;44.786;37.682;2022-10-16T03:23:51;10.58;72.29
74877;HTU21D;63425;44.786;37.682;2022-10-16T03:26:27;10.38;72.70
74877;HTU21D;63425;44.786;37.682;2022-10-16T03:29:05;10.34;72.81
74877;HTU21D;63425;44.786;37.682;2022-10-16T03:31:42;10.40;72.64
74877;HTU21D;63425;44.786;37.682;2022-10-16T03:34:11;10.28;72.56
74877;HTU21D;63425;44.786;37.682;2022-10-16T03:36:42;10.23;72.70
74877;HTU21D;63425;44.786;37.682;2022-10-16T03:39:11;10.11;72.79
74877;HTU21D;63425;44.786;37.682;2022-10-16T03:41:40;10.07;73.12
74877;HTU21D;63425;44.786;37.682;2022-10-16T03:44:13;10.06;72.98
74877;HTU21D;63425;44.786;37.682;2022-10-16T03:46:42;10.00;73.12
74877;HTU21D;63425;44.786;37.682;2022-10-16T03:49:10;9.99;73.30
74877;HTU21D;63425;44.786;37.682;2022-10-16T03:51:37;10.00;73.35
74877;HTU21D;63425;44.786;37.682;2022-10-16T03:54:14;9.94;73.56
74877;HTU21D;63425;44.786;37.682;2022-10-16T03:56:43;10.01;73.45
74877;HTU21D;63425;44.786;37.682;2022-10-16T03:59:34;10.09;73.42
74877;HTU21D;63425;44.786;37.682;2022-10-16T04:02:02;10.05;73.34
74877;HTU21D;63425;44.786;37.682;2022-10-16T04:04:31;10.11;73.90
74877;HTU21D;63425;44.786;37.682;2022-10-16T04:06:57;10.12;73.48
74877;HTU21D;63425;44.786;37.682;2022-10-16T04:09:24;10.18;73.50
74877;HTU21D;63425;44.786;37.682;2022-10-16T04:11:52;10.24;73.41
74877;HTU21D;63425;44.786;37.682;2022-10-16T04:14:24;10.33;73.23
74877;HTU21D;63425;44.786;37.682;2022-10-16T04:17:01;10.45;73.19
74877;HTU21D;63425;44.786;37.682;2022-10-16T04:19:29;10.57;72.87
74877;HTU21D;63425;44.786;37.682;2022-10-16T04:22:24;10.70;72.61
74877;HTU21D;63425;44.786;37.682;2022-10-16T04:24:52;10.81;72.41
74877;HTU21D;63425;44.786;37.682;2022-10-16T04:27:21;10.89;72.11
74877;HTU21D;63425;44.786;37.682;2022-10-16T04:29:50;10.99;72.03
74877;HTU21D;63425;44.786;37.682;2022-10-16T04:32:17;11.13;71.74
74877;HTU21D;63425;44.786;37.682;2022-10-16T04:34:44;11.28;71.38
74877;HTU21D;63425;44.786;37.682;2022-10-16T04:37:16;11.67;70.64
74877;HTU21D;63425;44.786;37.682;2022-10-16T04:39:44;12.02;69.97
74877;HTU21D;63425;44.786;37.682;2022-10-16T04:42:13;12.48;69.04
74877;HTU21D;63425;44.786;37.682;2022-10-16T04:44:42;12.96;67.92
74877;HTU21D;63425;44.786;37.682;2022-10-16T04:47:10;13.62;66.68
74877;HTU21D;63425;44.786;37.682;2022-10-16T04:49:36;14.08;65.79
74877;HTU21D;63425;44.786;37.682;2022-10-16T04:52:05;14.27;65.09
74877;HTU21D;63425;44.786;37.682;2022-10-16T04:54:33;14.81;64.03
74877;HTU21D;63425;44.786;37.682;2022-10-16T04:57:01;15.47;62.87
74877;HTU21D;63425;44.786;37.682;2022-10-16T04:59:35;15.96;61.73
74877;HTU21D;63425;44.786;37.682;2022-10-16T05:02:04;16.56;60.15
74877;HTU21D;63425;44.786;37.682;2022-10-16T05:04:33;16.82;59.77
74877;HTU21D;63425;44.786;37.682;2022-10-16T05:07:14;17.08;58.62
74877;HTU21D;63425;44.786;37.682;2022-10-16T05:09:43;17.19;57.98
74877;HTU21D;63425;44.786;37.682;2022-10-16T05:12:12;16.67;59.03
74877;HTU21D;63425;44.786;37.682;2022-10-16T05:14:41;16.69;59.04
74877;HTU21D;63425;44.786;37.682;2022-10-16T05:17:16;16.74;58.53
74877;HTU21D;63425;44.786;37.682;2022-10-16T05:19:45;16.57;58.60
74877;HTU21D;63425;44.786;37.682;2022-10-16T05:22:13;16.92;57.37
74877;HTU21D;63425;44.786;37.682;2022-10-16T05:24:44;17.22;56.81
74877;HTU21D;63425;44.786;37.682;2022-10-16T05:27:13;17.23;56.41
74877;HTU21D;63425;44.786;37.682;2022-10-16T05:29:55;16.85;56.68
74877;HTU21D;63425;44.786;37.682;2022-10-16T05:32:24;16.96;56.77
74877;HTU21D;63425;44.786;37.682;2022-10-16T05:34:52;17.05;56.58
74877;HTU21D;63425;44.786;37.682;2022-10-16T05:37:24;16.84;56.97
74877;HTU21D;63425;44.786;37.682;2022-10-16T05:39:52;17.11;56.55
74877;HTU21D;63425;44.786;37.682;2022-10-16T05:42:21;16.92;56.29
74877;HTU21D;63425;44.786;37.682;2022-10-16T05:44:54;17.20;56.15
74877;HTU21D;63425;44.786;37.682;2022-10-16T05:47:23;17.47;55.61
74877;HTU21D;63425;44.786;37.682;2022-10-16T05:49:56;18.14;54.20
74877;HTU21D;63425;44.786;37.682;2022-10-16T05:52:51;18.48;53.30
74877;HTU21D;63425;44.786;37.682;2022-10-16T05:55:25;17.93;54.21
74877;HTU21D;63425;44.786;37.682;2022-10-16T05:58:02;17.69;54.68
74877;HTU21D;63425;44.786;37.682;2022-10-16T06:00:36;17.49;55.31
74877;HTU21D;63425;44.786;37.682;2022-10-16T06:03:13;17.15;55.58
74877;HTU21D;63425;44.786;37.682;2022-10-16T06:05:42;17.06;55.89
74877;HTU21D;63425;44.786;37.682;2022-10-16T06:08:11;16.88;56.29
74877;HTU21D;63425;44.786;37.682;2022-10-16T06:11:11;16.98;56.34
74877;HTU21D;63425;44.786;37.682;2022-10-16T06:13:40;17.37;55.72
74877;HTU21D;63425;44.786;37.682;2022-10-16T06:16:14;17.47;55.52
74877;HTU21D;63425;44.786;37.682;2022-10-16T06:18:43;17.90;54.94
74877;HTU21D;63425;44.786;37.682;2022-10-16T06:21:27;18.37;54.40
74877;HTU21D;63425;44.786;37.682;2022-10-16T06:23:58;18.81;53.60
74877;HTU21D;63425;44.786;37.682;2022-10-16T06:26:27;19.15;52.70
74877;HTU21D;63425;44.786;37.682;2022-10-16T06:28:56;19.83;51.54
74877;HTU21D;63425;44.786;37.682;2022-10-16T06:31:25;19.67;51.38
74877;HTU21D;63425;44.786;37.682;2022-10-16T06:34:03;19.69;51.50
74877;HTU21D;63425;44.786;37.682;2022-10-16T06:36:34;19.75;51.16
74877;HTU21D;63425;44.786;37.682;2022-10-16T06:39:03;19.91;51.27
74877;HTU21D;63425;44.786;37.682;2022-10-16T06:41:42;19.26;52.14
74877;HTU21D;63425;44.786;37.682;2022-10-16T06:44:15;18.67;52.98
74877;HTU21D;63425;44.786;37.682;2022-10-16T06:46:43;18.15;54.31
74877;HTU21D;63425;44.786;37.682;2022-10-16T06:49:21;18.56;53.84
74877;HTU21D;63425;44.786;37.682;2022-10-16T06:51:53;18.95;52.84
74877;HTU21D;63425;44.786;37.682;2022-10-16T06:54:22;18.66;53.04
74877;HTU21D;63425;44.786;37.682;2022-10-16T06:56:51;18.71;53.07
74877;HTU21D;63425;44.786;37.682;2022-10-16T06:59:31;18.74;53.17
74877;HTU21D;63425;44.786;37.682;2022-10-16T07:02:01;18.73;53.14
74877;HTU21D;63425;44.786;37.682;2022-10-16T07:04:31;18.64;52.87
74877;HTU21D;63425;44.786;37.682;2022-10-16T07:07:00;17.78;54.23
74877;HTU21D;63425;44.786;37.682;2022-10-16T07:09:39;17.17;55.46
74877;HTU21D;63425;44.786;37.682;2022-10-16T07:12:06;16.58;56.62
74877;HTU21D;63425;44.786;37.682;2022-10-16T07:14:35;16.13;57.64
74877;HTU21D;63425;44.786;37.682;2022-10-16T07:17:03;15.77;58.44
74877;HTU21D;63425;44.786;37.682;2022-10-16T07:19:32;15.41;59.19
74877;HTU21D;63425;44.786;37.682;2022-10-16T07:22:09;15.17;59.86
74877;HTU21D;63425;44.786;37.682;2022-10-16T07:24:36;15.03;60.40
74877;HTU21D;63425;44.786;37.682;2022-10-16T07:27:04;14.80;61.00
74877;HTU21D;63425;44.786;37.682;2022-10-16T07:29:32;14.55;61.57
74877;HTU21D;63425;44.786;37.682;2022-10-16T07:32:01;14.53;61.81
74877;HTU21D;63425;44.786;37.682;2022-10-16T07:34:36;14.62;61.86
74877;HTU21D;63425;44.786;37.682;2022-10-16T07:37:04;14.60;62.27
74877;HTU21D;63425;44.786;37.682;2022-10-16T07:39:33;14.66;62.34
74877;HTU21D;63425;44.786;37.682;2022-10-16T07:42:11;14.74;62.42
74877;HTU21D;63425;44.786;37.682;2022-10-16T07:44:43;14.80;62.38
74877;HTU21D;63425;44.786;37.682;2022-10-16T07:47:12;14.74;62.84
74877;HTU21D;63425;44.786;37.682;2022-10-16T07:49:40;14.66;63.05
74877;HTU21D;63425;44.786;37.682;2022-10-16T07:52:07;14.57;63.34
74877;HTU21D;63425;44.786;37.682;2022-10-16T07:54:35;14.54;63.51
74877;HTU21D;63425;44.786;37.682;2022-10-16T07:57:04;14.38;63.76
74877;HTU21D;63425;44.786;37.682;2022-10-16T07:59:44;14.28;64.15
74877;HTU21D;63425;44.786;37.682;2022-10-16T08:02:12;14.37;64.19
74877;HTU21D;63425;44.786;37.682;2022-10-16T08:04:41;14.40;64.42
74877;HTU21D;63425;44.786;37.682;2022-10-16T08:07:11;14.52;64.37
74877;HTU21D;63425;44.786;37.682;2022-10-16T08:09:43;14.65;64.23
74877;HTU21D;63425;44.786;37.682;2022-10-16T08:12:12;14.77;64.07
74877;HTU21D;63425;44.786;37.682;2022-10-16T08:14:40;14.86;63.93
74877;HTU21D;63425;44.786;37.682;2022-10-16T08:17:07;15.00;63.88
74877;HTU21D;63425;44.786;37.682;2022-10-16T08:19:35;15.02;63.80
74877;HTU21D;63425;44.786;37.682;2022-10-16T08:22:04;14.98;63.99
74877;HTU21D;63425;44.786;37.682;2022-10-16T08:24:33;15.06;63.98
74877;HTU21D;63425;44.786;37.682;2022-10-16T08:27:12;15.14;63.74
74877;HTU21D;63425;44.786;37.682;2022-10-16T08:29:40;15.06;63.83
74877;HTU21D;63425;44.786;37.682;2022-10-16T08:32:07;15.03;63.95
74877;HTU21D;63425;44.786;37.682;2022-10-16T08:34:53;15.04;63.88
74877;HTU21D;63425;44.786;37.682;2022-10-16T08:37:21;15.16;63.69
74877;HTU21D;63425;44.786;37.682;2022-10-16T08:39:48;15.25;63.51
74877;HTU21D;63425;44.786;37.682;2022-10-16T08:45:15;15.19;63.65
74877;HTU21D;63425;44.786;37.682;2022-10-16T08:48:08;15.11;63.91
74877;HTU21D;63425;44.786;37.682;2022-10-16T08:50:42;15.11;63.85
74877;HTU21D;63425;44.786;37.682;2022-10-16T08:53:29;15.00;63.99
74877;HTU21D;63425;44.786;37.682;2022-10-16T08:55:57;14.85;64.24
74877;HTU21D;63425;44.786;37.682;2022-10-16T08:58:31;14.84;64.37
74877;HTU21D;63425;44.786;37.682;2022-10-16T09:01:10;14.84;64.51
74877;HTU21D;63425;44.786;37.682;2022-10-16T09:03:54;15.02;64.21
74877;HTU21D;63425;44.786;37.682;2022-10-16T09:06:46;15.28;63.78
74877;HTU21D;63425;44.786;37.682;2022-10-16T09:09:34;15.63;63.22
74877;HTU21D;63425;44.786;37.682;2022-10-16T09:18:24;15.99;62.98
74877;HTU21D;63425;44.786;37.682;2022-10-16T09:21:18;16.03;62.89
74877;HTU21D;63425;44.786;37.682;2022-10-16T09:23:50;15.93;63.26
74877;HTU21D;63425;44.786;37.682;2022-10-16T09:26:25;15.78;63.52
74877;HTU21D;63425;44.786;37.682;2022-10-16T09:28:54;15.82;63.60
74877;HTU21D;63425;44.786;37.682;2022-10-16T09:31:25;15.72;63.69
74877;HTU21D;63425;44.786;37.682;2022-10-16T09:34:00;15.70;63.98
74877;HTU21D;63425;44.786;37.682;2022-10-16T09:36:44;15.86;63.85
74877;HTU21D;63425;44.786;37.682;2022-10-16T09:39:13;16.14;63.28
74877;HTU21D;63425;44.786;37.682;2022-10-16T09:42:04;16.24;63.11
74877;HTU21D;63425;44.786;37.682;2022-10-16T09:44:32;16.29;63.28
74877;HTU21D;63425;44.786;37.682;2022-10-16T09:47:25;16.45;63.05
74877;HTU21D;63425;44.786;37.682;2022-10-16T09:50:00;16.54;62.98
74877;HTU21D;63425;44.786;37.682;2022-10-16T09:52:33;16.73;62.78
74877;HTU21D;63425;44.786;37.682;2022-10-16T09:55:21;16.82;62.53
74877;HTU21D;63425;44.786;37.682;2022-10-16T09:57:53;17.02;62.40
74877;HTU21D;63425;44.786;37.682;2022-10-16T10:00:23;17.28;61.98
74877;HTU21D;63425;44.786;37.682;2022-10-16T10:02:54;17.47;61.87
74877;HTU21D;63425;44.786;37.682;2022-10-16T10:05:24;17.49;61.53
74877;HTU21D;63425;44.786;37.682;2022-10-16T10:08:01;17.30;61.85
74877;HTU21D;63425;44.786;37.682;2022-10-16T10:10:51;17.18;62.03
74877;HTU21D;63425;44.786;37.682;2022-10-16T10:13:31;17.24;61.99
74877;HTU21D;63425;44.786;37.682;2022-10-16T10:15:59;17.33;61.76
74877;HTU21D;63425;44.786;37.682;2022-10-16T10:18:26;17.44;61.74
74877;HTU21D;63425;44.786;37.682;2022-10-16T10:21:24;17.53;61.39
74877;HTU21D;63425;44.786;37.682;2022-10-16T10:23:58;17.51;61.42
74877;HTU21D;63425;44.786;37.682;2022-10-16T10:26:35;17.53;61.37
74877;HTU21D;63425;44.786;37.682;2022-10-16T10:32:42;17.62;60.74
74877;HTU21D;63425;44.786;37.682;2022-10-16T10:35:44;17.70;60.83
74877;HTU21D;63425;44.786;37.682;2022-10-16T10:41:47;17.90;60.49
74877;HTU21D;63425;44.786;37.682;2022-10-16T10:47:27;17.93;60.53
74877;HTU21D;63425;44.786;37.682;2022-10-16T10:58:56;18.02;60.18
74877;HTU21D;63425;44.786;37.682;2022-10-16T11:02:13;18.07;60.35
74877;HTU21D;63425;44.786;37.682;2022-10-16T11:07:39;18.32;60.13
74877;HTU21D;63425;44.786;37.682;2022-10-16T11:10:22;18.35;59.73
74877;HTU21D;63425;44.786;37.682;2022-10-16T11:13:08;18.29;60.15
74877;HTU21D;63425;44.786;37.682;2022-10-16T11:15:48;18.29;59.99
74877;HTU21D;63425;44.786;37.682;2022-10-16T11:19:01;18.19;60.14
74877;HTU21D;63425;44.786;37.682;2022-10-16T11:21:39;18.19;60.25
74877;HTU21D;63425;44.786;37.682;2022-10-16T11:24:31;18.20;60.18
74877;HTU21D;63425;44.786;37.682;2022-10-16T11:27:09;18.17;60.34
74877;HTU21D;63425;44.786;37.682;2022-10-16T11:29:49;18.28;60.25
74877;HTU21D;63425;44.786;37.682;2022-10-16T11:32:48;18.30;60.18
74877;HTU21D;63425;44.786;37.682;2022-10-16T11:35:46;18.39;60.24
74877;HTU21D;63425;44.786;37.682;2022-10-16T11:38:52;18.54;59.88
74877;HTU21D;63425;44.786;37.682;2022-10-16T11:41:35;18.51;60.06
74877;HTU21D;63425;44.786;37.682;2022-10-16T11:47:56;18.48;60.20
74877;HTU21D;63425;44.786;37.682;2022-10-16T11:50:52;18.49;60.29
74877;HTU21D;63425;44.786;37.682;2022-10-16T11:53:38;18.58;60.18
74877;HTU21D;63425;44.786;37.682;2022-10-16T11:56:13;18.74;60.04
74877;HTU21D;63425;44.786;37.682;2022-10-16T11:58:55;18.89;59.93
74877;HTU21D;63425;44.786;37.682;2022-10-16T12:01:46;18.87;60.04
74877;HTU21D;63425;44.786;37.682;2022-10-16T12:04:30;18.86;60.10
74877;HTU21D;63425;44.786;37.682;2022-10-16T12:07:19;18.91;60.16
74877;HTU21D;63425;44.786;37.682;2022-10-16T12:09:51;18.94;60.21
74877;HTU21D;63425;44.786;37.682;2022-10-16T12:12:39;18.86;60.41
74877;HTU21D;63425;44.786;37.682;2022-10-16T12:15:27;18.70;60.71
74877;HTU21D;63425;44.786;37.682;2022-10-16T12:17:56;18.61;60.95
74877;HTU21D;63425;44.786;37.682;2022-10-16T12:20:35;18.53;61.20
74877;HTU21D;63425;44.786;37.682;2022-10-16T12:23:06;18.53;61.34
74877;HTU21D;63425;44.786;37.682;2022-10-16T12:25:55;18.54;61.36
74877;HTU21D;63425;44.786;37.682;2022-10-16T12:28:30;18.57;61.41
74877;HTU21D;63425;44.786;37.682;2022-10-16T12:31:23;18.66;61.32
74877;HTU21D;63425;44.786;37.682;2022-10-16T12:34:14;18.76;61.22
74877;HTU21D;63425;44.786;37.682;2022-10-16T12:36:47;18.78;61.25
74877;HTU21D;63425;44.786;37.682;2022-10-16T12:39:35;18.78;61.38
74877;HTU21D;63425;44.786;37.682;2022-10-16T12:44:55;18.69;61.60
74877;HTU21D;63425;44.786;37.682;2022-10-16T12:47:38;18.63;61.67
74877;HTU21D;63425;44.786;37.682;2022-10-16T12:50:28;18.56;61.89
74877;HTU21D;63425;44.786;37.682;2022-10-16T12:53:00;18.54;61.92
74877;HTU21D;63425;44.786;37.682;2022-10-16T12:55:42;18.47;62.13
74877;HTU21D;63425;44.786;37.682;2022-10-16T12:58:37;18.38;62.34
74877;HTU21D;63425;44.786;37.682;2022-10-16T13:17:18;18.13;63.13
74877;HTU21D;63425;44.786;37.682;2022-10-16T13:20:04;18.13;63.11
74877;HTU21D;63425;44.786;37.682;2022-10-16T13:25:30;18.14;63.11
74877;HTU21D;63425;44.786;37.682;2022-10-16T13:28:10;18.15;63.30
74877;HTU21D;63425;44.786;37.682;2022-10-16T13:30:53;18.13;63.43
74877;HTU21D;63425;44.786;37.682;2022-10-16T13:35:58;18.09;63.47
74877;HTU21D;63425;44.786;37.682;2022-10-16T13:38:27;18.06;63.57
74877;HTU21D;63425;44.786;37.682;2022-10-16T13:41:17;18.07;63.66
74877;HTU21D;63425;44.786;37.682;2022-10-16T13:43:56;18.05;63.65
74877;HTU21D;63425;44.786;37.682;2022-10-16T13:46:25;18.04;63.60
74877;HTU21D;63425;44.786;37.682;2022-10-16T13:49:00;18.00;63.71
74877;HTU21D;63425;44.786;37.682;2022-10-16T13:51:29;18.00;63.78
74877;HTU21D;63425;44.786;37.682;2022-10-16T13:53:59;17.96;63.91
74877;HTU21D;63425;44.786;37.682;2022-10-16T13:56:34;17.90;64.05
74877;HTU21D;63425;44.786;37.682;2022-10-16T13:59:04;17.82;64.16
74877;HTU21D;63425;44.786;37.682;2022-10-16T14:01:55;17.72;64.38
74877;HTU21D;63425;44.786;37.682;2022-10-16T14:04:32;17.63;64.63
74877;HTU21D;63425;44.786;37.682;2022-10-16T14:06:59;17.52;64.75
74877;HTU21D;63425;44.786;37.682;2022-10-16T14:09:30;17.51;64.80
74877;HTU21D;63425;44.786;37.682;2022-10-16T14:12:11;17.48;64.82
74877;HTU21D;63425;44.786;37.682;2022-10-16T14:14:52;17.41;64.84
74877;HTU21D;63425;44.786;37.682;2022-10-16T14:17:33;17.35;64.91
74877;HTU21D;63425;44.786;37.682;2022-10-16T14:20:13;17.31;65.11
74877;HTU21D;63425;44.786;37.682;2022-10-16T14:22:59;17.21;65.27
74877;HTU21D;63425;44.786;37.682;2022-10-16T14:25:37;17.14;65.24
74877;HTU21D;63425;44.786;37.682;2022-10-16T14:30:59;16.98;65.55
74877;HTU21D;63425;44.786;37.682;2022-10-16T14:36:11;16.85;65.85
74877;HTU21D;63425;44.786;37.682;2022-10-16T14:38:48;16.74;65.98
74877;HTU21D;63425;44.786;37.682;2022-10-16T14:41:29;16.73;65.91
74877;HTU21D;63425;44.786;37.682;2022-10-16T14:44:10;16.67;66.02
74877;HTU21D;63425;44.786;37.682;2022-10-16T14:46:40;16.67;66.17
74877;HTU21D;63425;44.786;37.682;2022-10-16T14:51:41;16.59;66.35
74877;HTU21D;63425;44.786;37.682;2022-10-16T14:54:09;16.51;66.46
74877;HTU21D;63425;44.786;37.682;2022-10-16T14:56:56;16.50;66.62
74877;HTU21D;63425;44.786;37.682;2022-10-16T14:59:40;16.50;66.69
74877;HTU21D;63425;44.786;37.682;2022-10-16T15:04:49;16.43;66.77
74877;HTU21D;63425;44.786;37.682;2022-10-16T15:07:18;16.39;66.80
74877;HTU21D;63425;44.786;37.682;2022-10-16T15:09:48;16.33;66.92
74877;HTU21D;63425;44.786;37.682;2022-10-16T15:12:17;16.32;67.04
74877;HTU21D;63425;44.786;37.682;2022-10-16T15:14:46;16.27;67.10
74877;HTU21D;63425;44.786;37.682;2022-10-16T15:17:15;16.32;67.18
74877;HTU21D;63425;44.786;37.682;2022-10-16T15:19:44;16.37;66.99
74877;HTU21D;63425;44.786;37.682;2022-10-16T15:22:12;16.41;67.00
74877;HTU21D;63425;44.786;37.682;2022-10-16T15:24:49;16.37;66.93
74877;HTU21D;63425;44.786;37.682;2022-10-16T15:27:18;16.33;67.10
74877;HTU21D;63425;44.786;37.682;2022-10-16T15:29:46;16.36;67.05
74877;HTU21D;63425;44.786;37.682;2022-10-16T15:32:15;16.41;66.96
74877;HTU21D;63425;44.786;37.682;2022-10-16T15:34:45;16.41;67.01
74877;HTU21D;63425;44.786;37.682;2022-10-16T15:37:13;16.41;66.93
74877;HTU21D;63425;44.786;37.682;2022-10-16T15:39:52;16.43;67.04
74877;HTU21D;63425;44.786;37.682;2022-10-16T15:42:19;16.42;67.07
74877;HTU21D;63425;44.786;37.682;2022-10-16T15:44:46;16.41;66.98
74877;HTU21D;63425;44.786;37.682;2022-10-16T15:47:15;16.41;67.00
74877;HTU21D;63425;44.786;37.682;2022-10-16T15:49:45;16.44;67.07
74877;HTU21D;63425;44.786;37.682;2022-10-16T15:52:16;16.46;67.05
74877;HTU21D;63425;44.786;37.682;2022-10-16T15:54:46;16.47;67.07
74877;HTU21D;63425;44.786;37.682;2022-10-16T15:57:14;16.45;67.13
74877;HTU21D;63425;44.786;37.682;2022-10-16T15:59:40;16.45;67.09
74877;HTU21D;63425;44.786;37.682;2022-10-16T16:02:09;16.43;67.20
74877;HTU21D;63425;44.786;37.682;2022-10-16T16:04:38;16.41;67.20
74877;HTU21D;63425;44.786;37.682;2022-10-16T16:07:05;16.37;67.26
74877;HTU21D;63425;44.786;37.682;2022-10-16T16:09:45;16.35;67.32
74877;HTU21D;63425;44.786;37.682;2022-10-16T16:12:15;16.32;67.41
74877;HTU21D;63425;44.786;37.682;2022-10-16T16:14:45;16.29;67.57
74877;HTU21D;63425;44.786;37.682;2022-10-16T16:17:26;16.24;67.63
74877;HTU21D;63425;44.786;37.682;2022-10-16T16:19:55;16.19;67.74
74877;HTU21D;63425;44.786;37.682;2022-10-16T16:22:25;16.14;67.75
74877;HTU21D;63425;44.786;37.682;2022-10-16T16:24:54;16.07;67.84
74877;HTU21D;63425;44.786;37.682;2022-10-16T16:27:21;16.01;68.00
74877;HTU21D;63425;44.786;37.682;2022-10-16T16:30:02;16.00;67.96
74877;HTU21D;63425;44.786;37.682;2022-10-16T16:32:30;15.95;68.02
74877;HTU21D;63425;44.786;37.682;2022-10-16T16:34:59;15.91;67.98
74877;HTU21D;63425;44.786;37.682;2022-10-16T16:37:28;15.90;67.84
74877;HTU21D;63425;44.786;37.682;2022-10-16T16:39:56;15.87;67.71
74877;HTU21D;63425;44.786;37.682;2022-10-16T16:42:35;15.87;67.68
74877;HTU21D;63425;44.786;37.682;2022-10-16T16:45:05;15.84;67.67
74877;HTU21D;63425;44.786;37.682;2022-10-16T16:47:59;15.75;67.65
74877;HTU21D;63425;44.786;37.682;2022-10-16T16:50:26;15.73;67.61
74877;HTU21D;63425;44.786;37.682;2022-10-16T16:52:54;15.70;67.64
74877;HTU21D;63425;44.786;37.682;2022-10-16T16:55:20;15.66;67.62
74877;HTU21D;63425;44.786;37.682;2022-10-16T16:58:07;15.59;67.70
74877;HTU21D;63425;44.786;37.682;2022-10-16T17:00:35;15.58;67.66
74877;HTU21D;63425;44.786;37.682;2022-10-16T17:03:04;15.57;67.62
74877;HTU21D;63425;44.786;37.682;2022-10-16T17:05:30;15.56;67.56
74877;HTU21D;63425;44.786;37.682;2022-10-16T17:07:59;15.55;67.52
74877;HTU21D;63425;44.786;37.682;2022-10-16T17:10:27;15.54;67.46